Portada
METAR-TAF:

METAR-TAF

Aeroports :

Jefferson City Memorial Airport

Jefferson City, Missouri, Estats Units d'Amèrica

latitud: 38-35-40N, longitud: 092-09-21W, altitud: 167 m

Observació

L'informe es va fer fa 45 minuts, a les 17:53 UTC
Vent 21 kt del Sud/Sud-Est amb ràfegues de 29 kt
Temperatura 28°C
Humitat 55%
Pressió 1010 hPa
Visibilitat: 16.1 km
Escasses núvols a una alçada de 10000 ft
Escasses núvols a una alçada de 11000 ft

METAR: KJEF 261753Z 16021G29KT 10SM FEW100 FEW110 28/18 A2982 RMK AO2 PK WND 14031/1733 SLP083 T02780183 10278 20222 50002

Hora: 13:38 (18:38 UTC)


TAF: manca

Observacions i pronòstics meteorològics de més de 4000 aeroports (METAR i TAF).

Les estacions disponibles són els punts grocs i vermells al mapa.

Posi el ratolí al punt desitjat per veure el nom de l'estació.

Feu clic per veure les observacions i els pronòstics meteorològics.

Per canviar el mapa: feu clic els botons verds amb una creu de color negre per apropar; al botó verd amb un guió per allunyar la imatge; o en les fletxes verdes per a mapes adjacents.


METAR-TAF: